Kettering, Ohio
Current Conditions -  °F | °C
As of 10:53 AM on Saturday 20 Dec 2014 (Local Time) from KMGY Reporting Station
Overcast Overcast  
Wind Chill: -4°   Ceiling: 1600
Heat Index: -1°   Visibility: 10mi
Dew Point: -5°   Wind: 5mph
Humidity: 75%   Direction: 320°NW
Pressure: 30.28"   Gusts: NA
Location:  39.7°N, 84.16°W
Report Text: KMGY 201553Z AUTO 32004KT 10SM OVC016 M01/M05 A3028 RMK AO2 SLP264 T10111050
Loading
Personal Weather Stations






























Interactive Weather Map New forecast layout! Learn more

10-Day Weather Forecast

Advertisements
Track Severe Weather on mobile